QFA442 NZAA-YSSY
Flight info
| Callsign | QFA442 |
|---|---|
| Flight time | N/A |
| Altitude | 36000 |
| Route | 3408S15507E MARLN |
| Aircraft | A20N/M-SDE2E3FGHIRWXY/LB1 |
Departure
| Time | N/A |
|---|---|
| Airport | Auckland International Airport (NZAA) |
Arrival
| Time | 2026-05-01 10:34 |
|---|---|
| Airport | Sydney Kingsford Smith International Airport (YSSY) |
| Time | Latitude | Longitude | Altitude | Speed | Heading |
|---|---|---|---|---|---|
| 2026-05-01 09:53 | -34.12772 | 155.07301 | 36417 ft | 468 kts | 268° |
| 2026-05-01 09:53 | -34.12698 | 155.03375 | 36406 ft | 466 kts | 268° |
| 2026-05-01 09:54 | -34.12546 | 154.95636 | 36412 ft | 458 kts | 268° |
| 2026-05-01 09:54 | -34.12393 | 154.87979 | 36412 ft | 456 kts | 268° |
| 2026-05-01 09:55 | -34.12236 | 154.80308 | 36410 ft | 456 kts | 268° |
| 2026-05-01 09:55 | -34.12074 | 154.72664 | 36134 ft | 453 kts | 268° |
| 2026-05-01 09:56 | -34.11992 | 154.68846 | 35367 ft | 457 kts | 268° |
| 2026-05-01 09:56 | -34.11909 | 154.65031 | 34464 ft | 465 kts | 269° |
| 2026-05-01 09:56 | -34.11821 | 154.61043 | 33492 ft | 471 kts | 269° |
| 2026-05-01 09:56 | -34.11731 | 154.57078 | 32728 ft | 473 kts | 269° |
| 2026-05-01 09:57 | -34.11639 | 154.53118 | 32001 ft | 473 kts | 269° |
| 2026-05-01 09:57 | -34.11547 | 154.49199 | 31254 ft | 474 kts | 269° |
| 2026-05-01 09:57 | -34.11453 | 154.45222 | 30480 ft | 475 kts | 269° |
| 2026-05-01 09:57 | -34.11356 | 154.41187 | 29810 ft | 472 kts | 269° |
| 2026-05-01 09:58 | -34.11261 | 154.37299 | 29461 ft | 468 kts | 269° |
| 2026-05-01 09:58 | -34.11164 | 154.33374 | 29399 ft | 468 kts | 269° |
| 2026-05-01 09:58 | -34.10968 | 154.25524 | 29402 ft | 465 kts | 269° |
| 2026-05-01 09:59 | -34.10868 | 154.21703 | 29398 ft | 447 kts | 269° |
| 2026-05-01 09:59 | -34.10770 | 154.18022 | 29396 ft | 431 kts | 269° |
| 2026-05-01 09:59 | -34.10676 | 154.14477 | 29395 ft | 415 kts | 269° |
| 2026-05-01 09:59 | -34.10585 | 154.11070 | 29394 ft | 402 kts | 269° |
| 2026-05-01 10:00 | -34.10409 | 154.04359 | 29396 ft | 399 kts | 269° |
| 2026-05-01 10:00 | -34.10228 | 153.97658 | 29403 ft | 400 kts | 269° |
| 2026-05-01 10:01 | -34.10041 | 153.90942 | 29400 ft | 400 kts | 269° |
| 2026-05-01 10:01 | -34.09852 | 153.84283 | 29170 ft | 399 kts | 269° |
| 2026-05-01 10:02 | -34.09658 | 153.77587 | 29379 ft | 400 kts | 270° |
| 2026-05-01 10:02 | -34.09461 | 153.70897 | 29396 ft | 399 kts | 270° |
| 2026-05-01 10:03 | -34.09259 | 153.64194 | 29399 ft | 400 kts | 269° |
| 2026-05-01 10:03 | -34.09054 | 153.57480 | 29395 ft | 400 kts | 270° |
| 2026-05-01 10:04 | -34.08844 | 153.50778 | 29394 ft | 400 kts | 270° |
| 2026-05-01 10:04 | -34.08632 | 153.44064 | 29391 ft | 400 kts | 269° |
| 2026-05-01 10:05 | -34.08417 | 153.37397 | 29390 ft | 399 kts | 270° |
| 2026-05-01 10:05 | -34.08197 | 153.30703 | 29389 ft | 399 kts | 270° |
| 2026-05-01 10:06 | -34.07973 | 153.23993 | 29389 ft | 400 kts | 270° |
| 2026-05-01 10:06 | -34.07747 | 153.17292 | 29388 ft | 399 kts | 271° |
| 2026-05-01 10:07 | -34.07516 | 153.10606 | 29383 ft | 399 kts | 271° |
| 2026-05-01 10:07 | -34.07298 | 153.04424 | 29377 ft | 382 kts | 271° |
| 2026-05-01 10:08 | -34.07073 | 152.98016 | 29394 ft | 394 kts | 271° |
| 2026-05-01 10:08 | -34.06954 | 152.94646 | 29395 ft | 408 kts | 270° |
| 2026-05-01 10:08 | -34.06829 | 152.91164 | 29228 ft | 419 kts | 271° |
| 2026-05-01 10:09 | -34.06701 | 152.87671 | 28399 ft | 425 kts | 271° |
| 2026-05-01 10:09 | -34.06570 | 152.84076 | 27568 ft | 431 kts | 272° |
| 2026-05-01 10:09 | -34.06436 | 152.80476 | 27040 ft | 428 kts | 272° |
| 2026-05-01 10:09 | -34.06302 | 152.76913 | 26578 ft | 423 kts | 272° |
| 2026-05-01 10:10 | -34.06169 | 152.73386 | 26042 ft | 421 kts | 272° |
| 2026-05-01 10:10 | -34.06035 | 152.69879 | 25540 ft | 418 kts | 272° |
| 2026-05-01 10:10 | -34.05769 | 152.62924 | 24576 ft | 411 kts | 272° |
| 2026-05-01 10:11 | -34.05636 | 152.59498 | 24102 ft | 408 kts | 272° |
| 2026-05-01 10:11 | -34.05503 | 152.56090 | 23568 ft | 405 kts | 272° |
| 2026-05-01 10:11 | -34.05415 | 152.53849 | 23175 ft | 403 kts | 272° |
| 2026-05-01 10:11 | -34.05283 | 152.50477 | 22600 ft | 401 kts | 273° |
| 2026-05-01 10:12 | -34.05150 | 152.47135 | 22043 ft | 398 kts | 273° |
| 2026-05-01 10:12 | -34.05017 | 152.43816 | 21480 ft | 396 kts | 273° |
| 2026-05-01 10:12 | -34.04750 | 152.37212 | 20382 ft | 391 kts | 273° |
| 2026-05-01 10:13 | -34.04617 | 152.33948 | 19853 ft | 388 kts | 273° |
| 2026-05-01 10:13 | -34.04484 | 152.30699 | 19313 ft | 387 kts | 273° |
| 2026-05-01 10:13 | -34.04350 | 152.27467 | 18743 ft | 386 kts | 273° |
| 2026-05-01 10:14 | -34.04081 | 152.21026 | 17660 ft | 379 kts | 274° |
| 2026-05-01 10:14 | -34.03948 | 152.17863 | 17142 ft | 376 kts | 273° |
| 2026-05-01 10:14 | -34.03816 | 152.14740 | 16642 ft | 371 kts | 274° |
| 2026-05-01 10:14 | -34.03684 | 152.11638 | 16050 ft | 370 kts | 274° |
| 2026-05-01 10:15 | -34.03552 | 152.08550 | 15566 ft | 367 kts | 274° |
| 2026-05-01 10:15 | -34.03494 | 152.05515 | 15038 ft | 365 kts | 270° |
| 2026-05-01 10:15 | -34.03528 | 152.02464 | 14546 ft | 362 kts | 269° |
| 2026-05-01 10:15 | -34.03578 | 151.99443 | 14057 ft | 358 kts | 269° |
| 2026-05-01 10:16 | -34.03628 | 151.96456 | 13569 ft | 353 kts | 270° |
| 2026-05-01 10:16 | -34.03677 | 151.93496 | 12977 ft | 352 kts | 270° |
| 2026-05-01 10:16 | -34.03766 | 151.87621 | 11889 ft | 348 kts | 271° |
| 2026-05-01 10:17 | -34.03808 | 151.84723 | 11436 ft | 343 kts | 272° |
| 2026-05-01 10:17 | -34.02440 | 151.79431 | 10448 ft | 330 kts | 300° |
| 2026-05-01 10:17 | -34.01487 | 151.76921 | 9892 ft | 330 kts | 294° |
| 2026-05-01 10:18 | -34.00240 | 151.71673 | 8747 ft | 327 kts | 284° |
| 2026-05-01 10:18 | -33.99817 | 151.68976 | 8188 ft | 325 kts | 282° |
| 2026-05-01 10:18 | -33.99461 | 151.66293 | 7632 ft | 323 kts | 281° |
| 2026-05-01 10:19 | -33.99143 | 151.63619 | 7193 ft | 318 kts | 280° |
| 2026-05-01 10:19 | -33.98853 | 151.61021 | 6889 ft | 309 kts | 280° |
| 2026-05-01 10:19 | -33.98577 | 151.58484 | 6459 ft | 304 kts | 280° |
| 2026-05-01 10:20 | -33.98043 | 151.53468 | 5995 ft | 300 kts | 279° |
| 2026-05-01 10:20 | -33.97780 | 151.50978 | 5989 ft | 301 kts | 279° |
| 2026-05-01 10:20 | -33.97516 | 151.48468 | 5991 ft | 301 kts | 279° |
| 2026-05-01 10:20 | -33.97263 | 151.46043 | 5981 ft | 282 kts | 279° |
| 2026-05-01 10:21 | -33.97030 | 151.43795 | 5979 ft | 265 kts | 279° |
| 2026-05-01 10:21 | -33.96589 | 151.39600 | 5988 ft | 246 kts | 280° |
| 2026-05-01 10:21 | -33.96373 | 151.37553 | 5993 ft | 247 kts | 279° |
| 2026-05-01 10:22 | -33.95947 | 151.33432 | 5964 ft | 247 kts | 279° |
| 2026-05-01 10:22 | -33.96722 | 151.29523 | 5331 ft | 251 kts | 227° |
| 2026-05-01 10:23 | -33.98171 | 151.28393 | 4970 ft | 250 kts | 195° |
| 2026-05-01 10:23 | -34.01540 | 151.28353 | 4325 ft | 243 kts | 167° |
| 2026-05-01 10:23 | -34.03200 | 151.28806 | 4014 ft | 241 kts | 163° |
| 2026-05-01 10:24 | -34.06437 | 151.29784 | 3407 ft | 238 kts | 162° |
| 2026-05-01 10:24 | -34.09620 | 151.30740 | 3003 ft | 234 kts | 163° |
| 2026-05-01 10:25 | -34.12796 | 151.31692 | 2992 ft | 236 kts | 163° |
| 2026-05-01 10:25 | -34.15981 | 151.32654 | 2988 ft | 236 kts | 163° |
| 2026-05-01 10:26 | -34.17579 | 151.33141 | 2991 ft | 238 kts | 163° |
| 2026-05-01 10:26 | -34.19165 | 151.33632 | 2992 ft | 238 kts | 163° |
| 2026-05-01 10:26 | -34.22414 | 151.33987 | 2987 ft | 240 kts | 199° |
| 2026-05-01 10:27 | -34.24499 | 151.31043 | 2996 ft | 239 kts | 257° |
| 2026-05-01 10:27 | -34.25041 | 151.26853 | 2997 ft | 265 kts | 276° |
| 2026-05-01 10:28 | -34.24477 | 151.24791 | 2993 ft | 257 kts | 310° |
| 2026-05-01 10:28 | -34.21381 | 151.23504 | 2999 ft | 245 kts | 8° |
| 2026-05-01 10:28 | -34.19700 | 151.23706 | 2994 ft | 247 kts | 5° |
| 2026-05-01 10:29 | -34.16312 | 151.23366 | 2984 ft | 234 kts | 351° |
| 2026-05-01 10:29 | -34.14774 | 151.22952 | 2998 ft | 219 kts | 349° |
| 2026-05-01 10:30 | -34.11911 | 151.22173 | 2995 ft | 206 kts | 351° |
| 2026-05-01 10:30 | -34.09304 | 151.21439 | 2973 ft | 174 kts | 349° |
| 2026-05-01 10:31 | -34.07147 | 151.20729 | 2868 ft | 155 kts | 348° |
| 2026-05-01 10:31 | -34.05066 | 151.20102 | 2557 ft | 155 kts | 352° |
| 2026-05-01 10:32 | -34.02753 | 151.19617 | 1987 ft | 168 kts | 354° |
| 2026-05-01 10:32 | -34.01605 | 151.19337 | 1416 ft | 172 kts | 353° |
| 2026-05-01 10:32 | -33.99312 | 151.18765 | 634 ft | 161 kts | 353° |
| 2026-05-01 10:33 | -33.97235 | 151.18258 | 283 ft | 155 kts | 349° |
| 2026-05-01 10:33 | -33.95270 | 151.17765 | 26 ft | 121 kts | 347° |
| 2026-05-01 10:34 | -33.94784 | 151.17652 | 28 ft | 35 kts | 356° |
| 2026-05-01 10:34 | -33.94598 | 151.17658 | 28 ft | 0 kts | 5° |
| 2026-05-01 10:35 | -33.94562 | 151.17665 | 27 ft | 22 kts | 10° |
| 2026-05-01 10:36 | -33.94337 | 151.17769 | 28 ft | 0 kts | 34° |
| 2026-05-01 10:36 | -33.94336 | 151.17769 | 28 ft | 0 kts | 34° |